Time;durP1;ratioP1;P1;durP2;ratioP2;P2;SDS_P1;SDS_P2;PMS_P1;PMS_P2;Temp;Humidity;BMP_temperature;BMP_pressure;BME280_temperature;BME280_humidity;BME280_pressure;Samples;Min_cycle;Max_cycle;Signal;HPM_P1;HPM_P2
2022/12/08 00:01:09;;;;;;;1999.90;999.90;;;;;;;2.83;100.00;94573.53;5137572;27;20191;-67
2022/12/08 00:03:34;;;;;;;1999.90;999.90;;;;;;;2.81;100.00;94573.13;5137393;27;20267;-67
2022/12/08 00:11:38;;;;;;;1999.90;999.90;;;;;;;2.45;100.00;94546.28;5138232;27;20174;-70
2022/12/08 00:14:03;;;;;;;1999.90;999.90;;;;;;;2.36;100.00;94541.19;5136910;27;20175;-70
2022/12/08 00:16:29;;;;;;;1999.90;999.90;;;;;;;2.37;100.00;94526.59;5136850;27;20175;-70
2022/12/08 00:18:54;;;;;;;1999.90;999.90;;;;;;;2.41;100.00;94527.38;5136442;27;20175;-70
2022/12/08 00:21:19;;;;;;;1999.90;999.90;;;;;;;2.38;100.00;94522.75;5136537;27;20176;-70
2022/12/08 00:23:45;;;;;;;1999.90;999.90;;;;;;;2.34;100.00;94513.84;5136439;27;20223;-70
2022/12/08 00:26:10;;;;;;;1999.90;999.90;;;;;;;2.33;100.00;94509.63;5136478;27;20224;-64
2022/12/08 00:28:36;;;;;;;1999.90;999.90;;;;;;;2.33;100.00;94493.47;5136549;27;20563;-68
2022/12/08 00:31:09;;;;;;;1999.90;999.90;;;;;;;2.24;100.00;94490.31;5136426;27;20179;-61
2022/12/08 00:33:35;;;;;;;1999.90;999.90;;;;;;;2.27;100.00;94483.41;5136428;27;20176;-61
2022/12/08 00:36:08;;;;;;;1999.90;999.90;;;;;;;2.28;100.00;94479.56;5136937;27;20181;-62
2022/12/08 00:38:34;;;;;;;1999.90;999.90;;;;;;;2.30;100.00;94461.88;5136755;27;20178;-62
2022/12/08 00:40:59;;;;;;;1999.90;999.90;;;;;;;2.32;100.00;94456.91;5135802;27;20225;-62
2022/12/08 00:43:25;;;;;;;1999.90;999.90;;;;;;;2.34;100.00;94449.22;5135772;27;20213;-61
2022/12/08 00:45:51;;;;;;;1999.90;999.90;;;;;;;2.36;100.00;94438.84;5136172;27;20172;-62
2022/12/08 00:48:16;;;;;;;1999.90;999.90;;;;;;;2.39;100.00;94434.63;5135974;27;20268;-62
2022/12/08 00:50:41;;;;;;;1999.90;999.90;;;;;;;2.36;100.00;94438.06;5136378;27;20179;-61
2022/12/08 00:53:07;;;;;;;1999.90;999.90;;;;;;;2.37;100.00;94424.22;5135883;27;20560;-61
2022/12/08 00:55:32;;;;;;;1999.90;999.90;;;;;;;2.39;100.00;94432.72;5136507;27;20307;-62
2022/12/08 00:57:57;;;;;;;1999.90;999.90;;;;;;;2.40;100.00;94423.50;5135925;27;20177;-63
2022/12/08 01:00:23;;;;;;;1999.90;999.90;;;;;;;2.39;100.00;94421.94;5136294;27;20179;-61
2022/12/08 01:02:48;;;;;;;1999.90;999.90;;;;;;;2.40;100.00;94420.81;5135813;27;20257;-81
2022/12/08 01:05:14;;;;;;;1999.90;999.90;;;;;;;2.42;100.00;94418.50;5135673;27;20221;-82
2022/12/08 01:07:39;;;;;;;1999.90;999.90;;;;;;;2.47;100.00;94423.53;5135452;27;20183;-71
2022/12/08 01:10:05;;;;;;;1999.90;999.90;;;;;;;2.48;100.00;94414.31;5135505;27;20216;-71
2022/12/08 01:12:30;;;;;;;1999.90;999.90;;;;;;;2.46;100.00;94427.38;5135407;27;20171;-72
2022/12/08 01:14:56;;;;;;;1999.90;999.90;;;;;;;2.46;100.00;94413.91;5135904;27;20171;-71
2022/12/08 01:17:21;;;;;;;1999.90;999.90;;;;;;;2.48;100.00;94411.59;5135892;27;20167;-70
2022/12/08 01:19:47;;;;;;;1999.90;999.90;;;;;;;2.47;100.00;94417.38;5135633;27;20258;-71
2022/12/08 01:22:12;;;;;;;1999.90;999.90;;;;;;;2.48;100.00;94430.47;5135907;27;20171;-65
2022/12/08 01:24:37;;;;;;;1999.90;999.90;;;;;;;2.46;100.00;94421.22;5135473;27;20206;-68
2022/12/08 01:27:03;;;;;;;1999.90;999.90;;;;;;;2.48;100.00;94419.69;5135159;27;20179;-68
2022/12/08 01:29:28;;;;;;;1999.90;999.90;;;;;;;2.48;100.00;94425.06;5135156;27;20182;-68
2022/12/08 01:31:54;;;;;;;1999.90;999.90;;;;;;;2.49;100.00;94418.56;5135324;27;20207;-68
2022/12/08 01:34:19;;;;;;;1999.90;999.90;;;;;;;2.49;100.00;94415.09;5136071;27;20178;-68
2022/12/08 01:36:44;;;;;;;1999.90;999.90;;;;;;;2.46;100.00;94411.22;5135251;27;20175;-68
2022/12/08 01:39:14;;;;;;;1999.90;999.90;;;;;;;2.47;100.00;94412.75;5135562;27;20178;-70
2022/12/08 01:41:42;;;;;;;1999.90;999.90;;;;;;;2.47;100.00;94412.75;5134831;27;20222;-62
2022/12/08 01:44:08;;;;;;;1999.90;999.90;;;;;;;2.48;100.00;94408.91;5135387;27;20245;-61
2022/12/08 01:46:35;;;;;;;1999.90;999.90;;;;;;;2.47;100.00;94399.28;5134973;27;20175;-61
2022/12/08 01:49:07;;;;;;;1999.90;999.90;;;;;;;2.46;100.00;94400.44;5135145;27;20163;-61
2022/12/08 01:51:51;;;;;;;1999.90;999.90;;;;;;;2.43;100.00;94401.19;5135418;27;20186;-61
2022/12/08 01:54:18;;;;;;;1999.90;999.90;;;;;;;2.42;100.00;94394.28;5135916;27;20171;-60
2022/12/08 01:56:52;;;;;;;1999.90;999.90;;;;;;;2.41;100.00;94387.31;5134665;27;20175;-61
2022/12/08 01:59:18;;;;;;;1999.90;999.90;;;;;;;2.41;100.00;94390.00;5134489;27;20174;-69
2022/12/08 02:01:44;;;;;;;1999.90;999.90;;;;;;;2.39;100.00;94383.47;5134554;27;20182;-64
2022/12/08 02:04:09;;;;;;;1999.90;999.90;;;;;;;2.37;100.00;94377.69;5134564;27;20217;-64
2022/12/08 02:06:39;;;;;;;1999.90;999.90;;;;;;;2.34;100.00;94381.88;5134906;27;20182;-66
2022/12/08 02:09:05;;;;;;;1999.90;999.90;;;;;;;2.35;100.00;94383.47;5134780;27;20178;-67
2022/12/08 02:11:30;;;;;;;1999.90;999.90;;;;;;;2.32;100.00;94383.41;5134807;27;20181;-65
2022/12/08 02:13:58;;;;;;;1999.90;999.90;;;;;;;2.28;100.00;94372.63;5134627;27;20230;-65
2022/12/08 02:16:37;;;;;;;1999.90;999.90;;;;;;;2.27;100.00;94370.31;5134636;27;20176;-64
2022/12/08 02:19:24;;;;;;;1999.90;999.90;;;;;;;2.27;100.00;94354.94;5134282;28;20175;-62
2022/12/08 02:22:13;;;;;;;1999.90;999.90;;;;;;;2.25;100.00;94348.38;5134916;28;20175;-81
2022/12/08 02:25:30;;;;;;;1999.90;999.90;;;;;;;2.24;100.00;94342.22;5134850;28;20222;-82
2022/12/08 02:28:02;;;;;;;1999.90;999.90;;;;;;;2.23;100.00;94321.06;5076313;28;20189;-80
2022/12/08 02:31:04;;;;;;;1999.90;999.90;;;;;;;2.22;100.00;94314.13;5124256;28;20565;-80
2022/12/08 02:33:49;;;;;;;1999.90;999.90;;;;;;;2.18;100.00;94311.41;5133752;28;20206;-77
2022/12/08 02:36:24;;;;;;;1999.90;999.90;;;;;;;2.15;100.00;94314.84;5135013;28;20176;-65
2022/12/08 02:39:17;;;;;;;1999.90;999.90;;;;;;;2.11;100.00;94303.28;5134868;27;20195;-64
2022/12/08 02:42:13;;;;;;;1999.90;999.90;;;;;;;2.08;100.00;94298.66;5134167;28;20285;-64
2022/12/08 02:44:47;;;;;;;1999.90;999.90;;;;;;;2.07;100.00;94297.13;5134802;27;20194;-64
2022/12/08 02:47:18;;;;;;;1999.90;999.90;;;;;;;2.07;100.00;94296.34;5134781;27;20171;-65
2022/12/08 02:49:44;;;;;;;1999.90;999.90;;;;;;;2.06;100.00;94287.50;5134427;28;20179;-64
2022/12/08 02:52:12;;;;;;;1999.90;999.90;;;;;;;2.03;100.00;94274.78;5134765;27;20189;-64
2022/12/08 02:54:45;;;;;;;1999.90;999.90;;;;;;;1.99;100.00;94263.25;5134234;28;20199;-64
2022/12/08 02:57:33;;;;;;;1999.90;999.90;;;;;;;2.00;100.00;94256.69;5134697;28;20178;-64
2022/12/08 03:00:14;;;;;;;1999.90;999.90;;;;;;;2.01;100.00;94258.22;5134807;27;20192;-64
2022/12/08 03:02:45;;;;;;;1999.90;999.90;;;;;;;2.02;100.00;94246.34;5134888;27;20166;-65
2022/12/08 03:05:26;;;;;;;1999.90;999.90;;;;;;;2.00;100.00;94237.84;5133764;28;20210;-65
2022/12/08 03:08:15;;;;;;;1999.90;999.90;;;;;;;1.98;100.00;94239.38;5133912;28;20227;-65
2022/12/08 03:10:48;;;;;;;1999.90;999.90;;;;;;;1.94;100.00;94234.00;5137695;27;20267;-65
2022/12/08 03:13:19;;;;;;;1999.90;999.90;;;;;;;1.88;100.00;94230.13;5138589;27;20175;-77
2022/12/08 03:15:48;;;;;;;1999.90;999.90;;;;;;;1.90;100.00;94227.06;5137707;27;20168;-63
2022/12/08 03:18:17;;;;;;;1999.90;999.90;;;;;;;1.90;100.00;94221.66;5138292;27;20172;-64
2022/12/08 03:20:45;;;;;;;1999.90;999.90;;;;;;;1.89;100.00;94220.88;5137772;27;20201;-63
2022/12/08 03:23:13;;;;;;;1999.90;999.90;;;;;;;1.89;100.00;94217.44;5137325;27;20219;-63
2022/12/08 03:25:47;;;;;;;1999.90;999.90;;;;;;;1.87;100.00;94211.66;5137955;27;20215;-63
2022/12/08 03:28:13;;;;;;;1999.90;999.90;;;;;;;1.86;100.00;94197.41;5137951;27;20556;-63
2022/12/08 03:30:43;;;;;;;1999.90;999.90;;;;;;;1.88;100.00;94200.50;5137627;27;20204;-76
2022/12/08 03:33:29;;;;;;;1999.90;999.90;;;;;;;1.91;100.00;94189.00;5137570;27;20189;-64
2022/12/08 03:35:55;;;;;;;1999.90;999.90;;;;;;;1.90;100.00;94184.75;5138032;27;20259;-65
2022/12/08 03:38:21;;;;;;;1999.90;999.90;;;;;;;1.88;100.00;94176.28;5137419;27;20182;-65
2022/12/08 03:41:17;;;;;;;1999.90;999.90;;;;;;;1.82;100.00;94179.72;5137239;27;20226;-64
2022/12/08 03:43:32;;;;;;;1999.90;999.90;;;;;;;1.83;100.00;94168.59;5138168;27;20275;-64
2022/12/08 03:45:58;;;;;;;1999.90;999.90;;;;;;;1.85;100.00;94166.28;5137299;27;20694;-64
2022/12/08 03:48:23;;;;;;;1999.90;999.90;;;;;;;1.88;100.00;94160.16;5137919;27;20175;-64
2022/12/08 03:50:48;;;;;;;1999.90;999.90;;;;;;;1.89;100.00;94158.25;5137818;27;20177;-75
2022/12/08 03:53:13;;;;;;;1999.90;999.90;;;;;;;1.89;100.00;94160.94;5137040;27;20186;-65
2022/12/08 03:55:39;;;;;;;1999.90;999.90;;;;;;;1.89;100.00;94147.47;5137118;27;20179;-64
2022/12/08 03:58:04;;;;;;;1999.90;999.90;;;;;;;1.89;100.00;94147.47;5137483;27;20209;-64
2022/12/08 04:00:30;;;;;;;1999.90;999.90;;;;;;;1.87;100.00;94147.84;5136864;27;20187;-63
2022/12/08 04:02:55;;;;;;;1999.90;999.90;;;;;;;1.84;100.00;94143.22;5137037;27;20182;-63
2022/12/08 04:05:20;;;;;;;1999.90;999.90;;;;;;;1.81;100.00;94154.72;5137021;27;20206;-63
2022/12/08 04:07:46;;;;;;;1999.90;999.90;;;;;;;1.81;100.00;94138.59;5136827;27;20258;-64
2022/12/08 04:10:11;;;;;;;1999.90;999.90;;;;;;;1.83;100.00;94136.31;5137314;27;20250;-72
2022/12/08 04:12:36;;;;;;;1999.90;999.90;;;;;;;1.85;100.00;94133.22;5136674;27;20175;-72
2022/12/08 04:15:02;;;;;;;1999.90;999.90;;;;;;;1.85;100.00;94128.59;5136954;27;20208;-72
2022/12/08 04:17:27;;;;;;;1999.90;999.90;;;;;;;1.84;100.00;94132.47;5136389;27;20262;-72
2022/12/08 04:19:53;;;;;;;1999.90;999.90;;;;;;;1.82;100.00;94128.63;5136818;27;20170;-71
2022/12/08 04:22:18;;;;;;;1999.90;999.90;;;;;;;1.78;100.00;94138.59;5136117;27;20197;-72
2022/12/08 04:24:43;;;;;;;1999.90;999.90;;;;;;;1.76;100.00;94124.72;5136554;27;20203;-64
2022/12/08 04:27:09;;;;;;;1999.90;999.90;;;;;;;1.76;100.00;94130.91;5136508;27;20266;-61
2022/12/08 04:29:34;;;;;;;1999.90;999.90;;;;;;;1.75;100.00;94129.31;5136701;27;20174;-64
2022/12/08 04:31:59;;;;;;;1999.90;999.90;;;;;;;1.76;100.00;94113.97;5136894;27;20259;-64
2022/12/08 04:34:25;;;;;;;1999.90;999.90;;;;;;;1.79;100.00;94119.34;5136566;27;20182;-64
2022/12/08 04:36:50;;;;;;;1999.90;999.90;;;;;;;1.79;100.00;94108.59;5136603;27;20168;-63
2022/12/08 04:39:15;;;;;;;1999.90;999.90;;;;;;;1.78;100.00;94107.06;5136444;27;20167;-64
2022/12/08 04:41:41;;;;;;;1999.90;999.90;;;;;;;1.76;100.00;94104.00;5136329;27;20219;-64
2022/12/08 04:44:06;;;;;;;1999.90;999.90;;;;;;;1.77;100.00;94097.44;5136960;27;20228;-63
2022/12/08 04:46:32;;;;;;;1999.90;999.90;;;;;;;1.75;100.00;94097.03;5136477;27;20174;-65
2022/12/08 04:48:57;;;;;;;1999.90;999.90;;;;;;;1.73;100.00;94085.91;5136052;27;20198;-65
2022/12/08 04:51:22;;;;;;;1999.90;999.90;;;;;;;1.74;100.00;94084.75;5135607;27;20171;-65
2022/12/08 04:53:48;;;;;;;1999.90;999.90;;;;;;;1.75;100.00;94080.91;5136093;27;20179;-64
2022/12/08 04:56:18;;;;;;;1999.90;999.90;;;;;;;1.73;100.00;94088.59;5136136;27;20178;-64
2022/12/08 04:58:43;;;;;;;1999.90;999.90;;;;;;;1.71;100.00;94085.50;5136442;27;20167;-64
2022/12/08 05:01:09;;;;;;;1999.90;999.90;;;;;;;1.71;100.00;94080.13;5135864;27;20181;-65
2022/12/08 05:03:35;;;;;;;1999.90;999.90;;;;;;;1.70;100.00;94083.97;5135781;27;20407;-69
2022/12/08 05:06:01;;;;;;;1999.90;999.90;;;;;;;1.69;100.00;94087.81;5135352;27;20187;-66
2022/12/08 05:08:27;;;;;;;1999.90;999.90;;;;;;;1.70;100.00;94077.81;5135669;27;20195;-67
2022/12/08 05:10:52;;;;;;;1999.90;999.90;;;;;;;1.70;100.00;94083.97;5135560;27;20163;-68
2022/12/08 05:13:18;;;;;;;1999.90;999.90;;;;;;;1.74;100.00;94078.59;5135740;27;20163;-67
2022/12/08 05:15:43;;;;;;;1999.90;999.90;;;;;;;1.77;100.00;94046.34;5135290;27;20265;-67
2022/12/08 05:18:09;;;;;;;1999.90;999.90;;;;;;;1.77;100.00;94040.94;5136055;27;20177;-67
2022/12/08 05:20:34;;;;;;;1999.90;999.90;;;;;;;1.76;100.00;94042.09;5135315;27;20178;-62
2022/12/08 05:23:00;;;;;;;1999.90;999.90;;;;;;;1.76;100.00;94042.09;5135358;27;20184;-68
2022/12/08 05:25:25;;;;;;;1999.90;999.90;;;;;;;1.76;100.00;94039.41;5135406;27;20214;-65
2022/12/08 05:27:51;;;;;;;1999.90;999.90;;;;;;;1.74;100.00;94041.72;5135505;27;20175;-65
2022/12/08 05:30:16;;;;;;;1999.90;999.90;;;;;;;1.74;100.00;94036.31;5135325;27;20183;-64
2022/12/08 05:32:41;;;;;;;1999.90;999.90;;;;;;;1.74;100.00;94032.84;5135579;27;20175;-65
2022/12/08 05:35:07;;;;;;;1999.90;999.90;;;;;;;1.71;100.00;94028.25;5135085;27;20171;-66
2022/12/08 05:37:32;;;;;;;1999.90;999.90;;;;;;;1.70;100.00;94030.16;5135684;27;20171;-65
2022/12/08 05:39:58;;;;;;;1999.90;999.90;;;;;;;1.70;100.00;94029.38;5134635;27;20199;-64
2022/12/08 05:42:23;;;;;;;1999.90;999.90;;;;;;;1.69;100.00;94017.88;5135390;27;20177;-68
2022/12/08 05:44:49;;;;;;;1999.90;999.90;;;;;;;1.66;100.00;94018.63;5135008;27;20195;-68
2022/12/08 05:47:14;;;;;;;1999.90;999.90;;;;;;;1.71;100.00;94012.88;5134963;27;20234;-68
2022/12/08 05:49:39;;;;;;;1999.90;999.90;;;;;;;1.72;100.00;94008.28;5134876;27;20175;-66
2022/12/08 05:52:05;;;;;;;1999.90;999.90;;;;;;;1.73;100.00;93999.81;5135180;27;20186;-64
2022/12/08 05:54:30;;;;;;;1999.90;999.90;;;;;;;1.72;100.00;94000.97;5135492;27;20217;-64
2022/12/08 05:56:56;;;;;;;1999.90;999.90;;;;;;;1.72;100.00;94006.38;5134871;27;20182;-75
2022/12/08 05:59:21;;;;;;;1999.90;999.90;;;;;;;1.69;100.00;93996.34;5134573;27;20175;-78
2022/12/08 06:01:47;;;;;;;1999.90;999.90;;;;;;;1.66;100.00;94012.47;5135636;27;20220;-63
2022/12/08 06:04:12;;;;;;;1999.90;999.90;;;;;;;1.66;100.00;94004.41;5134651;27;20545;-63
2022/12/08 06:06:37;;;;;;;1999.90;999.90;;;;;;;1.67;100.00;94001.34;5134818;27;20176;-63
2022/12/08 06:09:04;;;;;;;1999.90;999.90;;;;;;;1.70;100.00;93992.50;5135266;27;20238;-63
2022/12/08 06:11:31;;;;;;;1999.90;999.90;;;;;;;1.71;100.00;93980.59;5135163;27;20202;-63
2022/12/08 06:13:57;;;;;;;1999.90;999.90;;;;;;;1.74;100.00;93987.13;5134630;27;20681;-65
2022/12/08 06:16:24;;;;;;;1999.90;999.90;;;;;;;1.72;100.00;93984.84;5134442;27;20171;-77
2022/12/08 06:18:50;;;;;;;1999.90;999.90;;;;;;;1.69;100.00;93985.59;5134629;27;20272;-78
2022/12/08 06:21:17;;;;;;;1999.90;999.90;;;;;;;1.68;100.00;93975.97;5134043;28;20265;-75
2022/12/08 06:23:43;;;;;;;1999.90;999.90;;;;;;;1.70;100.00;93980.97;5134560;27;20197;-79
2022/12/08 06:26:11;;;;;;;1999.90;999.90;;;;;;;1.68;100.00;93978.66;5134582;27;20270;-80
2022/12/08 06:28:36;;;;;;;1999.90;999.90;;;;;;;1.66;100.00;93978.28;5134211;28;20314;-80
2022/12/08 06:31:20;;;;;;;1999.90;999.90;;;;;;;1.65;100.00;93979.44;5135036;28;20259;-78
2022/12/08 06:33:46;;;;;;;1999.90;999.90;;;;;;;1.69;100.00;93964.06;5134275;27;20190;-68
2022/12/08 06:36:14;;;;;;;1999.90;999.90;;;;;;;1.72;100.00;93974.09;5134800;27;20266;-69
2022/12/08 06:38:39;;;;;;;1999.90;999.90;;;;;;;1.75;100.00;93964.47;5134161;27;20171;-67
2022/12/08 06:41:06;;;;;;;1999.90;999.90;;;;;;;1.75;100.00;93957.16;5133935;28;20233;-69
2022/12/08 06:43:32;;;;;;;1999.90;999.90;;;;;;;1.75;100.00;93959.09;5133989;27;20289;-66
2022/12/08 06:45:58;;;;;;;1999.90;999.90;;;;;;;1.72;100.00;93949.88;5137874;27;20224;-66
2022/12/08 06:48:24;;;;;;;1999.90;999.90;;;;;;;1.70;100.00;93946.78;5138482;27;20189;-66
2022/12/08 06:50:49;;;;;;;1999.90;999.90;;;;;;;1.70;100.00;93954.06;5138524;27;20177;-66
2022/12/08 06:53:15;;;;;;;1999.90;999.90;;;;;;;1.68;100.00;93949.06;5138232;27;20171;-69
2022/12/08 06:55:45;;;;;;;1999.90;999.90;;;;;;;1.69;100.00;93939.09;5137863;27;20218;-66
2022/12/08 06:58:12;;;;;;;1999.90;999.90;;;;;;;1.62;100.00;93931.78;5138548;27;20571;-66
2022/12/08 07:00:38;;;;;;;1999.90;999.90;;;;;;;1.60;100.00;93931.38;5138196;27;20225;-66
2022/12/08 07:03:06;;;;;;;1999.90;999.90;;;;;;;1.59;100.00;93937.94;5138008;27;20241;-66
2022/12/08 07:05:32;;;;;;;1999.90;999.90;;;;;;;1.60;100.00;93936.75;5138750;27;20212;-69
2022/12/08 07:07:57;;;;;;;1999.90;999.90;;;;;;;1.61;100.00;93941.00;5137747;27;20228;-68
2022/12/08 07:10:22;;;;;;;1999.90;999.90;;;;;;;1.71;100.00;93928.72;5138385;27;20172;-67
2022/12/08 07:12:48;;;;;;;1999.90;999.90;;;;;;;1.80;100.00;93921.81;5138134;27;20172;-68
2022/12/08 07:15:13;;;;;;;1999.90;999.90;;;;;;;2.01;100.00;93913.72;5137411;27;20247;-68
2022/12/08 07:17:38;;;;;;;1999.90;999.90;;;;;;;2.59;100.00;93903.25;5138176;27;20205;-67
2022/12/08 07:20:04;;;;;;;1999.90;999.90;;;;;;;3.29;100.00;93902.22;5137535;27;20163;-66
2022/12/08 07:22:30;;;;;;;1999.90;999.90;;;;;;;3.79;100.00;93924.28;5137436;27;20207;-66
2022/12/08 07:24:55;;;;;;;1999.90;999.90;;;;;;;4.29;100.00;94028.09;5137328;27;20300;-66
2022/12/08 07:27:21;;;;;;;1999.90;999.90;;;;;;;4.93;100.00;94100.22;5137287;27;20213;-66
2022/12/08 07:29:46;;;;;;;1999.90;999.90;;;;;;;5.31;100.00;94211.97;5137702;27;20172;-63
2022/12/08 07:32:11;;;;;;;1999.90;999.90;;;;;;;5.61;100.00;94317.72;5137708;27;20172;-77
2022/12/08 07:34:37;;;;;;;1999.90;999.90;;;;;;;5.86;100.00;94405.00;5137201;27;20260;-67
2022/12/08 07:37:02;;;;;;;1999.90;999.90;;;;;;;6.29;100.00;94465.88;5137449;27;20175;-66
2022/12/08 07:39:27;;;;;;;1999.90;999.90;;;;;;;6.74;100.00;94505.44;5137237;27;20169;-65
2022/12/08 07:41:53;;;;;;;1999.90;999.90;;;;;;;6.81;100.00;94546.06;5137270;27;20216;-66
2022/12/08 07:44:18;;;;;;;1999.90;999.90;;;;;;;7.18;100.00;94564.38;5137578;27;20197;-66
2022/12/08 07:46:43;;;;;;;1999.90;999.90;;;;;;;7.50;100.00;94581.91;5137112;27;20233;-66
2022/12/08 07:49:09;;;;;;;1999.90;999.90;;;;;;;7.88;100.00;94586.16;5136993;27;20262;-63
2022/12/08 07:51:34;;;;;;;1999.90;999.90;;;;;;;7.87;100.00;94600.91;5136844;27;20179;-65
2022/12/08 07:53:59;;;;;;;1999.90;999.90;;;;;;;7.82;100.00;94601.38;5137307;27;20179;-65
2022/12/08 07:56:25;;;;;;;1999.90;999.90;;;;;;;8.18;100.00;94609.88;5135543;27;20175;-66
2022/12/08 07:58:50;;;;;;;1999.90;999.90;;;;;;;8.10;100.00;94606.50;5137017;27;20248;-67
2022/12/08 08:01:27;;;;;;;1999.90;999.90;;;;;;;8.16;100.00;94606.81;5137021;27;20316;-67
2022/12/08 08:03:55;;;;;;;1999.90;999.90;;;;;;;8.84;100.00;94619.94;5137096;27;20269;-67
2022/12/08 08:06:21;;;;;;;1999.90;999.90;;;;;;;8.66;100.00;94615.91;5137418;27;20180;-62
2022/12/08 08:08:46;;;;;;;1999.90;999.90;;;;;;;8.47;100.00;94622.78;5137336;27;20187;-62
2022/12/08 08:11:12;;;;;;;1999.90;999.90;;;;;;;8.53;100.00;94626.56;5136820;27;20173;-63
2022/12/08 08:13:37;;;;;;;1999.90;999.90;;;;;;;8.66;100.00;94627.56;5137228;27;20204;-62
2022/12/08 08:16:07;;;;;;;1999.90;999.90;;;;;;;7.94;100.00;94628.03;5136862;27;20177;-63
2022/12/08 08:18:34;;;;;;;1999.90;999.90;;;;;;;7.23;100.00;94616.28;5136497;27;20263;-62
2022/12/08 08:20:59;;;;;;;1999.90;999.90;;;;;;;7.48;100.00;94625.00;5137209;27;20177;-63
2022/12/08 08:23:25;;;;;;;1999.90;999.90;;;;;;;8.33;100.00;94617.50;5136510;27;20180;-63
2022/12/08 08:25:50;;;;;;;1999.90;999.90;;;;;;;8.69;100.00;94624.03;5136458;27;20178;-73
2022/12/08 08:28:16;;;;;;;1999.90;999.90;;;;;;;7.93;100.00;94626.50;5136032;27;20213;-64
2022/12/08 08:30:41;;;;;;;1999.90;999.90;;;;;;;7.81;100.00;94618.84;5136316;27;20180;-64
2022/12/08 08:33:06;;;;;;;1999.90;999.90;;;;;;;8.21;100.00;94623.50;5136193;27;20171;-63
2022/12/08 08:35:33;;;;;;;1999.90;999.90;;;;;;;8.18;100.00;94616.09;5136841;27;20180;-63
2022/12/08 08:37:59;;;;;;;1999.90;999.90;;;;;;;8.63;100.00;94612.06;5137398;27;20176;-62
2022/12/08 08:40:24;;;;;;;1999.90;999.90;;;;;;;8.83;100.00;94620.34;5135852;27;20180;-62
2022/12/08 08:42:50;;;;;;;1999.90;999.90;;;;;;;9.36;100.00;94618.34;5136394;27;20255;-76
2022/12/08 08:45:15;;;;;;;1999.90;999.90;;;;;;;9.85;100.00;94616.72;5135829;27;20248;-70
2022/12/08 08:47:40;;;;;;;1999.90;999.90;;;;;;;9.73;100.00;94626.28;5136632;27;20180;-71
2022/12/08 08:50:06;;;;;;;1999.90;999.90;;;;;;;9.07;100.00;94628.16;5136004;27;20183;-71
2022/12/08 08:52:31;;;;;;;1999.90;999.90;;;;;;;8.56;100.00;94636.63;5136402;27;20178;-69
2022/12/08 08:54:57;;;;;;;1999.90;999.90;;;;;;;8.25;100.00;94626.94;5136140;27;20205;-69
2022/12/08 08:57:22;;;;;;;1999.90;999.90;;;;;;;7.94;100.00;94628.03;5135685;27;20174;-70
2022/12/08 08:59:47;;;;;;;1999.90;999.90;;;;;;;9.01;100.00;94629.81;5135776;27;20203;-73
2022/12/08 09:02:18;;;;;;;1999.90;999.90;;;;;;;9.11;100.00;94628.09;5136638;27;20177;-61
2022/12/08 09:04:44;;;;;;;1999.90;999.90;;;;;;;8.50;100.00;94638.28;5135760;27;20210;-61
2022/12/08 09:07:10;;;;;;;1999.90;999.90;;;;;;;8.19;100.00;94623.09;5135703;27;20172;-62
2022/12/08 09:09:36;;;;;;;1999.90;999.90;;;;;;;8.63;100.00;94628.38;5135734;27;20177;-61
2022/12/08 09:12:01;;;;;;;1999.90;999.90;;;;;;;9.10;100.00;94632.78;5135458;27;20236;-61
2022/12/08 09:14:27;;;;;;;1999.90;999.90;;;;;;;9.55;100.00;94625.81;5136074;27;20202;-61
2022/12/08 09:16:52;;;;;;;1999.90;999.90;;;;;;;10.05;100.00;94625.69;5135663;27;20643;-61
2022/12/08 09:19:18;;;;;;;1999.90;999.90;;;;;;;9.12;100.00;94629.63;5136287;27;20178;-61
2022/12/08 09:21:43;;;;;;;1999.90;999.90;;;;;;;8.69;100.00;94629.47;5135580;27;20184;-66
2022/12/08 09:24:14;;;;;;;1999.90;999.90;;;;;;;8.45;100.00;94625.13;5135903;27;20236;-61
2022/12/08 09:26:41;;;;;;;1999.90;999.90;;;;;;;8.91;100.00;94613.59;5135839;27;20178;-61
2022/12/08 09:29:07;;;;;;;1999.90;999.90;;;;;;;9.08;100.00;94621.53;5135398;27;20169;-61
2022/12/08 09:31:32;;;;;;;1999.90;999.90;;;;;;;8.87;100.00;94621.06;5135136;27;20182;-61
2022/12/08 09:33:58;;;;;;;1999.90;999.90;;;;;;;8.24;100.00;94614.53;5135151;27;20209;-61
2022/12/08 09:36:24;;;;;;;1999.90;999.90;;;;;;;8.02;100.00;94612.41;5135284;27;20207;-61
2022/12/08 09:38:52;;;;;;;1999.90;999.90;;;;;;;8.04;100.00;94610.03;5134771;27;20177;-74
2022/12/08 09:41:44;;;;;;;1999.90;999.90;;;;;;;8.34;100.00;94608.16;5134672;27;20231;-62
2022/12/08 09:44:24;;;;;;;1999.90;999.90;;;;;;;7.81;100.00;94605.28;5135648;27;20198;-63
2022/12/08 09:46:52;;;;;;;1999.90;999.90;;;;;;;6.98;100.00;94599.44;5134795;27;20216;-62
2022/12/08 09:49:22;;;;;;;1999.90;999.90;;;;;;;6.55;100.00;94598.16;5135976;27;20205;-62
2022/12/08 09:51:48;;;;;;;1999.90;999.90;;;;;;;7.20;100.00;94595.38;5135492;27;20171;-62
2022/12/08 09:54:23;;;;;;;1999.90;999.90;;;;;;;7.20;100.00;94591.88;5135055;27;20183;-61
2022/12/08 09:56:53;;;;;;;1999.90;999.90;;;;;;;7.03;100.00;94590.09;5134796;27;20206;-66
2022/12/08 09:59:28;;;;;;;1999.90;999.90;;;;;;;6.85;100.00;94590.25;5134800;27;20584;-66
2022/12/08 10:01:53;;;;;;;1999.90;999.90;;;;;;;7.04;100.00;94581.56;5134805;27;20167;-60
2022/12/08 10:04:25;;;;;;;1999.90;999.90;;;;;;;7.34;100.00;94578.97;5134634;27;20214;-60
2022/12/08 10:07:34;;;;;;;1999.90;999.90;;;;;;;7.85;100.00;94575.31;5134618;27;20218;-60
2022/12/08 10:10:25;;;;;;;1999.90;999.90;;;;;;;8.91;100.00;94570.81;5075703;28;20176;-59
2022/12/08 10:12:58;;;;;;;1999.90;999.90;;;;;;;8.20;100.00;94564.78;5076043;28;20275;-61
2022/12/08 10:15:30;;;;;;;1999.90;999.90;;;;;;;8.14;100.00;94565.66;5117130;27;20272;-60
2022/12/08 10:17:59;;;;;;;1999.90;999.90;;;;;;;7.77;100.00;94555.63;5135110;27;20164;-65
2022/12/08 10:20:36;;;;;;;1999.90;999.90;;;;;;;7.57;100.00;94551.94;5134320;27;20177;-64
2022/12/08 10:23:20;;;;;;;1999.90;999.90;;;;;;;7.37;100.00;94558.38;5135205;27;20200;-65
2022/12/08 10:25:57;;;;;;;1999.90;999.90;;;;;;;7.18;100.00;94551.59;5134770;28;20183;-65
2022/12/08 10:28:22;;;;;;;1999.90;999.90;;;;;;;7.16;100.00;94556.63;5134391;27;20171;-64
2022/12/08 10:30:48;;;;;;;1999.90;999.90;;;;;;;7.10;100.00;94541.19;5134949;27;20182;-64
2022/12/08 10:33:19;;;;;;;1999.90;999.90;;;;;;;6.97;100.00;94548.25;5134928;27;20171;-62
2022/12/08 10:35:49;;;;;;;1999.90;999.90;;;;;;;6.82;100.00;94536.78;5134354;28;20186;-65
2022/12/08 10:38:41;;;;;;;1999.90;999.90;;;;;;;6.82;100.00;94547.63;5134302;27;20187;-62
2022/12/08 10:41:09;;;;;;;1999.90;999.90;;;;;;;6.68;100.00;94536.88;5130752;28;20416;-61
2022/12/08 10:43:54;;;;;;;1999.90;999.90;;;;;;;6.66;100.00;94523.72;5134855;28;20202;-61
2022/12/08 10:46:25;;;;;;;1999.90;999.90;;;;;;;6.64;100.00;94528.75;5134805;27;20183;-61
2022/12/08 10:48:53;;;;;;;1999.90;999.90;;;;;;;6.68;100.00;94526.03;5134705;27;20169;-61
2022/12/08 10:51:29;;;;;;;1999.90;999.90;;;;;;;6.62;100.00;94519.47;5134649;27;20218;-62
2022/12/08 10:53:55;;;;;;;1999.90;999.90;;;;;;;6.50;100.00;94514.53;5133700;28;20548;-64
2022/12/08 10:56:27;;;;;;;1999.90;999.90;;;;;;;6.47;100.00;94518.03;5134111;27;20183;-70
2022/12/08 10:59:10;;;;;;;1999.90;999.90;;;;;;;6.39;100.00;94513.84;5134849;27;20263;-73
2022/12/08 11:01:38;;;;;;;1999.90;999.90;;;;;;;6.60;100.00;94513.69;5134735;27;20201;-70
2022/12/08 11:04:10;;;;;;;1999.90;999.90;;;;;;;6.76;100.00;94505.81;5133912;28;20214;-73
2022/12/08 11:06:40;;;;;;;1999.90;999.90;;;;;;;6.39;100.00;94509.19;5134698;28;20252;-72